Time;durP1;ratioP1;P1;durP2;ratioP2;P2;SDS_P1;SDS_P2;PMS_P1;PMS_P2;Temp;Humidity;BMP_temperature;BMP_pressure;BME280_temperature;BME280_humidity;BME280_pressure;Samples;Min_cycle;Max_cycle;Signal;HPM_P1;HPM_P2
2022/06/28 00:00:11;;;;;;;5.00;3.40;;;26.00;99.90;;;;;;5053870;28;20201;-85
2022/06/28 00:02:39;;;;;;;3.55;2.78;;;25.90;99.90;;;;;;5053455;28;20297;-85
2022/06/28 00:05:09;;;;;;;3.83;3.33;;;25.70;99.90;;;;;;5053305;28;20221;-85
2022/06/28 00:07:38;;;;;;;3.83;2.90;;;25.60;99.90;;;;;;5053996;28;20282;-85
2022/06/28 00:10:10;;;;;;;2.53;2.33;;;25.50;99.90;;;;;;5053390;28;20265;-85
2022/06/28 00:12:39;;;;;;;2.75;2.53;;;25.50;99.90;;;;;;5053642;28;20253;-85
2022/06/28 00:17:58;;;;;;;14.23;2.97;;;25.40;99.90;;;;;;5053562;28;20277;-85
2022/06/28 00:20:27;;;;;;;4.95;2.80;;;25.30;99.90;;;;;;5052919;28;20218;-85
2022/06/28 00:22:56;;;;;;;3.33;3.03;;;25.20;99.90;;;;;;5053673;28;20225;-84
2022/06/28 00:25:26;;;;;;;4.70;2.90;;;25.10;99.90;;;;;;5053176;28;20218;-84
2022/06/28 00:27:54;;;;;;;7.68;3.00;;;24.90;99.90;;;;;;5053019;28;20202;-85
2022/06/28 00:30:23;;;;;;;5.70;3.28;;;24.90;99.90;;;;;;5052961;28;20221;-84
2022/06/28 00:32:51;;;;;;;2.80;2.60;;;24.70;99.90;;;;;;5053571;28;20256;-86
2022/06/28 00:35:19;;;;;;;3.28;2.97;;;24.70;99.90;;;;;;5053316;28;20236;-85
2022/06/28 00:37:48;;;;;;;2.72;2.53;;;24.50;99.90;;;;;;5053318;28;20233;-84
2022/06/28 00:40:16;;;;;;;3.45;3.15;;;24.40;99.90;;;;;;5053338;28;20278;-85
2022/06/28 00:42:46;;;;;;;3.22;3.00;;;24.30;99.90;;;;;;5053149;28;20263;-85
2022/06/28 00:45:15;;;;;;;4.15;3.03;;;24.10;99.90;;;;;;5053014;28;20221;-85
2022/06/28 00:47:43;;;;;;;2.97;2.67;;;24.00;99.90;;;;;;5052535;28;20206;-85
2022/06/28 00:50:12;;;;;;;2.63;2.42;;;23.80;99.90;;;;;;5053154;28;20267;-85
2022/06/28 00:53:02;;;;;;;6.97;2.85;;;23.60;99.90;;;;;;5052854;28;20229;-85
2022/06/28 00:55:30;;;;;;;2.80;2.60;;;23.30;99.90;;;;;;5053206;28;20210;-85
2022/06/28 00:58:00;;;;;;;2.67;2.47;;;23.10;99.90;;;;;;5053297;28;20197;-85
2022/06/28 01:00:29;;;;;;;2.70;2.50;;;22.90;99.90;;;;;;5052586;28;20206;-85
2022/06/28 01:02:58;;;;;;;4.03;2.70;;;22.80;99.90;;;;;;5052622;28;20320;-85
2022/06/28 01:05:26;;;;;;;2.15;2.00;;;22.80;99.90;;;;;;5052537;28;20221;-85
2022/06/28 01:07:55;;;;;;;2.50;2.33;;;22.80;99.90;;;;;;5052883;28;20208;-85
2022/06/28 01:10:26;;;;;;;2.40;2.22;;;22.80;99.90;;;;;;5052590;28;20237;-85
2022/06/28 01:12:54;;;;;;;4.20;2.65;;;22.70;99.90;;;;;;5052524;28;20270;-85
2022/06/28 01:15:24;;;;;;;2.63;2.35;;;22.60;99.90;;;;;;5052776;28;20208;-85
2022/06/28 01:17:53;;;;;;;2.25;2.10;;;22.60;99.90;;;;;;5052960;28;20285;-85
2022/06/28 01:20:22;;;;;;;2.28;2.17;;;22.60;99.90;;;;;;5052705;28;20209;-85
2022/06/28 01:22:54;;;;;;;3.42;2.20;;;22.60;99.90;;;;;;5052879;28;20244;-84
2022/06/28 01:25:24;;;;;;;5.85;3.13;;;22.60;99.90;;;;;;5052273;28;20242;-84
2022/06/28 01:27:53;;;;;;;2.58;2.40;;;22.50;99.90;;;;;;5052565;28;20225;-85
2022/06/28 01:30:22;;;;;;;3.35;3.05;;;22.40;99.90;;;;;;5052185;28;20271;-84
2022/06/28 01:32:51;;;;;;;3.35;2.80;;;22.30;99.90;;;;;;5052628;28;20245;-84
2022/06/28 01:35:20;;;;;;;3.45;3.05;;;22.10;99.90;;;;;;5052860;28;20233;-85
2022/06/28 01:37:49;;;;;;;2.85;2.65;;;21.90;99.90;;;;;;5052534;28;20229;-84
2022/06/28 01:40:19;;;;;;;2.83;2.55;;;21.70;99.90;;;;;;5053757;28;20209;-84
2022/06/28 01:42:48;;;;;;;4.18;3.75;;;21.60;99.90;;;;;;5056446;28;20312;-84
2022/06/28 01:45:16;;;;;;;2.88;2.67;;;21.60;99.90;;;;;;5056256;28;20244;-84
2022/06/28 01:47:45;;;;;;;5.53;3.40;;;21.60;99.90;;;;;;5056545;28;20240;-84
2022/06/28 01:50:14;;;;;;;3.17;2.88;;;21.60;99.90;;;;;;5056212;28;20224;-84
2022/06/28 01:52:43;;;;;;;2.65;2.45;;;21.70;99.90;;;;;;5056042;28;20259;-84
2022/06/28 01:55:12;;;;;;;4.13;2.72;;;21.70;99.90;;;;;;5056458;28;20248;-84
2022/06/28 01:57:41;;;;;;;2.50;2.28;;;21.60;99.90;;;;;;5055792;28;20261;-84
2022/06/28 02:00:11;;;;;;;2.67;2.47;;;21.60;99.90;;;;;;5055988;28;20265;-84
2022/06/28 02:02:39;;;;;;;2.72;2.53;;;21.70;99.90;;;;;;5056017;28;20293;-84
2022/06/28 02:05:09;;;;;;;2.20;2.00;;;21.60;99.90;;;;;;5055930;28;20276;-84
2022/06/28 02:07:37;;;;;;;2.90;2.40;;;21.60;99.90;;;;;;5055761;28;20269;-84
2022/06/28 02:10:06;;;;;;;1.95;1.85;;;21.60;99.90;;;;;;5056092;28;20210;-84
2022/06/28 02:12:34;;;;;;;2.42;2.22;;;21.60;99.90;;;;;;5055565;28;20222;-85
2022/06/28 02:15:05;;;;;;;1.75;1.65;;;21.60;99.90;;;;;;5056001;28;20213;-84
2022/06/28 02:17:34;;;;;;;2.42;2.22;;;21.60;99.90;;;;;;5055926;28;20230;-84
2022/06/28 02:20:02;;;;;;;2.10;2.00;;;21.50;99.90;;;;;;5055856;28;20228;-84
2022/06/28 02:22:31;;;;;;;2.78;1.92;;;21.40;99.90;;;;;;5055355;28;20226;-84
2022/06/28 02:24:59;;;;;;;2.72;2.53;;;21.40;99.90;;;;;;5055529;28;20214;-84
2022/06/28 02:27:27;;;;;;;2.58;2.38;;;21.30;99.90;;;;;;5055711;28;20248;-84
2022/06/28 02:29:56;;;;;;;2.20;2.10;;;21.30;99.90;;;;;;5055507;28;20226;-84
2022/06/28 02:32:26;;;;;;;1.92;1.83;;;21.30;99.90;;;;;;5055511;28;20253;-84
2022/06/28 02:40:25;;;;;;;1.98;1.88;;;21.20;99.90;;;;;;5055370;28;20253;-84
2022/06/28 02:42:56;;;;;;;2.40;2.25;;;21.30;99.90;;;;;;5055535;28;20316;-84
2022/06/28 02:45:27;;;;;;;2.28;2.08;;;21.30;99.90;;;;;;5055847;28;20293;-84
2022/06/28 02:47:57;;;;;;;2.22;2.03;;;21.30;99.90;;;;;;5055412;28;20244;-84
2022/06/28 02:50:26;;;;;;;1.90;1.80;;;21.30;99.90;;;;;;5055113;28;20206;-84
2022/06/28 02:52:54;;;;;;;2.53;2.33;;;21.30;99.90;;;;;;5055150;28;20225;-84
2022/06/28 02:55:23;;;;;;;3.05;2.60;;;21.30;99.90;;;;;;5055245;28;20206;-84
2022/06/28 02:57:51;;;;;;;2.03;1.92;;;21.20;99.90;;;;;;5055323;28;20229;-83
2022/06/28 03:00:20;;;;;;;2.50;2.15;;;21.00;99.90;;;;;;5054716;28;20260;-84
2022/06/28 03:02:49;;;;;;;2.97;2.72;;;20.70;99.90;;;;;;5054787;28;20256;-84
2022/06/28 03:05:21;;;;;;;3.15;2.95;;;20.60;99.90;;;;;;5054463;28;20218;-84
2022/06/28 03:07:50;;;;;;;3.22;2.95;;;20.40;99.90;;;;;;5054916;28;20218;-85
2022/06/28 03:10:19;;;;;;;3.08;2.88;;;20.30;99.90;;;;;;5054857;28;20212;-85
2022/06/28 03:12:48;;;;;;;3.97;3.58;;;20.30;99.90;;;;;;5054465;28;20278;-84
2022/06/28 03:15:16;;;;;;;4.13;3.72;;;20.20;99.90;;;;;;5054383;28;20265;-85
2022/06/28 03:17:49;;;;;;;3.45;3.15;;;20.20;99.90;;;;;;5054611;28;20232;-84
2022/06/28 03:20:19;;;;;;;3.83;3.53;;;20.20;99.90;;;;;;5054391;28;20240;-84
2022/06/28 03:22:48;;;;;;;3.20;3.00;;;20.30;99.90;;;;;;5054865;28;20248;-85
2022/06/28 03:25:16;;;;;;;3.35;3.13;;;20.30;99.90;;;;;;5054702;28;20275;-85
2022/06/28 03:27:44;;;;;;;4.22;3.83;;;20.30;99.90;;;;;;5054182;28;20226;-84
2022/06/28 03:30:14;;;;;;;3.53;3.22;;;20.30;99.90;;;;;;5054128;28;20269;-85
2022/06/28 03:32:42;;;;;;;3.58;3.33;;;20.30;99.90;;;;;;5054358;28;20248;-84
2022/06/28 03:35:11;;;;;;;3.58;3.28;;;20.40;99.90;;;;;;5054355;28;20208;-84
2022/06/28 03:37:41;;;;;;;2.90;2.70;;;20.40;99.90;;;;;;5054390;28;20220;-84
2022/06/28 03:40:10;;;;;;;3.38;3.08;;;20.40;99.90;;;;;;5054552;28;20293;-84
2022/06/28 03:42:39;;;;;;;3.17;2.88;;;20.40;99.90;;;;;;5054273;28;20249;-84
2022/06/28 03:45:08;;;;;;;2.60;2.40;;;20.50;99.90;;;;;;5054170;28;20304;-84
2022/06/28 03:47:36;;;;;;;2.05;1.95;;;20.50;99.90;;;;;;5053687;28;20221;-84
2022/06/28 03:50:05;;;;;;;3.53;2.70;;;20.60;99.90;;;;;;5054262;28;20237;-84
2022/06/28 03:52:34;;;;;;;2.85;2.65;;;20.70;99.90;;;;;;5054213;28;20237;-84
2022/06/28 03:55:06;;;;;;;2.72;2.53;;;20.80;99.90;;;;;;5054218;28;20202;-83
2022/06/28 03:57:34;;;;;;;3.35;2.50;;;20.80;99.90;;;;;;5054014;28;20198;-84
2022/06/28 04:00:04;;;;;;;3.35;2.38;;;20.80;99.90;;;;;;5053959;28;20237;-84
2022/06/28 04:02:32;;;;;;;2.70;2.50;;;20.80;99.90;;;;;;5053130;28;20241;-84
2022/06/28 04:05:00;;;;;;;3.47;2.75;;;20.80;99.90;;;;;;5054134;28;20292;-84
2022/06/28 04:07:29;;;;;;;2.28;2.00;;;20.70;99.90;;;;;;5053535;28;20233;-84
2022/06/28 04:09:57;;;;;;;3.08;2.40;;;20.80;99.90;;;;;;5053805;28;20236;-84
2022/06/28 04:12:27;;;;;;;2.63;2.40;;;20.70;99.90;;;;;;5053338;28;20313;-83
2022/06/28 04:14:55;;;;;;;2.50;2.30;;;20.70;99.90;;;;;;5053541;28;20256;-84
2022/06/28 04:17:24;;;;;;;2.55;2.35;;;20.80;99.90;;;;;;5053780;28;20249;-84
2022/06/28 04:19:52;;;;;;;2.47;2.30;;;20.80;99.90;;;;;;5053837;28;20248;-83
2022/06/28 04:22:20;;;;;;;2.00;1.90;;;20.80;99.90;;;;;;5053196;28;20221;-84
2022/06/28 04:24:49;;;;;;;1.90;1.80;;;20.90;99.90;;;;;;5053523;28;20269;-83
2022/06/28 04:27:17;;;;;;;1.80;1.70;;;20.90;99.90;;;;;;5053126;28;20309;-83
2022/06/28 04:29:47;;;;;;;1.80;1.70;;;20.90;99.90;;;;;;5053039;28;20205;-84
2022/06/28 04:32:15;;;;;;;1.75;1.65;;;21.00;99.90;;;;;;5053355;28;20222;-83
2022/06/28 04:34:43;;;;;;;1.88;1.77;;;20.90;99.90;;;;;;5053427;28;20231;-83
2022/06/28 04:37:12;;;;;;;1.98;1.88;;;20.90;99.90;;;;;;5052960;28;20205;-83
2022/06/28 04:39:40;;;;;;;1.92;1.83;;;20.80;99.90;;;;;;5052858;28;20201;-83
2022/06/28 04:42:09;;;;;;;2.05;1.95;;;20.90;99.90;;;;;;5052686;28;20248;-83
2022/06/28 04:44:38;;;;;;;2.90;1.73;;;20.90;99.90;;;;;;5053588;28;20206;-83
2022/06/28 04:47:09;;;;;;;2.08;1.88;;;20.90;99.90;;;;;;5053202;28;20229;-83
2022/06/28 04:49:37;;;;;;;1.60;1.50;;;20.80;99.90;;;;;;5053345;28;20233;-83
2022/06/28 04:52:06;;;;;;;1.90;1.80;;;20.80;99.90;;;;;;5052826;28;20232;-83
2022/06/28 04:54:35;;;;;;;1.80;1.60;;;20.80;99.90;;;;;;5053074;28;20232;-84
2022/06/28 04:57:04;;;;;;;1.67;1.58;;;20.80;99.90;;;;;;5053151;28;20201;-83
2022/06/28 04:59:32;;;;;;;2.72;2.10;;;20.70;99.90;;;;;;5053103;28;20271;-83
2022/06/28 05:02:00;;;;;;;1.90;1.80;;;20.80;99.90;;;;;;5052726;28;20229;-83
2022/06/28 05:04:30;;;;;;;2.75;1.90;;;20.80;99.90;;;;;;5053109;28;20206;-83
2022/06/28 05:06:59;;;;;;;1.67;1.58;;;20.70;99.90;;;;;;5052727;28;20245;-83
2022/06/28 05:09:27;;;;;;;2.10;1.50;;;20.80;99.90;;;;;;5052923;28;20228;-83
2022/06/28 05:12:04;;;;;;;2.00;1.90;;;20.80;99.90;;;;;;5052879;28;20228;-83
2022/06/28 05:14:32;;;;;;;1.55;1.40;;;20.80;99.90;;;;;;5051903;28;20201;-83
2022/06/28 05:17:01;;;;;;;1.67;1.58;;;20.80;99.90;;;;;;5052731;28;20205;-83
2022/06/28 05:19:33;;;;;;;1.70;1.60;;;20.80;99.90;;;;;;5052901;28;20205;-83
2022/06/28 05:22:02;;;;;;;1.95;1.83;;;20.80;99.90;;;;;;5052787;28;20309;-83
2022/06/28 05:24:30;;;;;;;2.40;1.70;;;20.90;99.90;;;;;;5052677;28;20224;-83
2022/06/28 05:26:58;;;;;;;1.70;1.60;;;20.90;99.90;;;;;;5052572;28;20240;-83
2022/06/28 05:29:27;;;;;;;1.50;1.40;;;20.90;99.90;;;;;;5052139;28;20210;-84
2022/06/28 05:31:55;;;;;;;2.25;1.85;;;21.00;99.90;;;;;;5052170;28;20274;-83
2022/06/28 05:34:24;;;;;;;1.88;1.75;;;21.10;99.90;;;;;;5052538;28;20209;-84
2022/06/28 05:36:53;;;;;;;1.60;1.50;;;21.20;99.90;;;;;;5052600;28;20206;-83
2022/06/28 05:39:22;;;;;;;2.70;2.15;;;21.30;99.90;;;;;;5052324;28;20228;-83
2022/06/28 05:41:50;;;;;;;1.83;1.50;;;21.40;99.90;;;;;;5052270;28;20202;-84
2022/06/28 05:44:19;;;;;;;1.70;1.60;;;21.50;99.90;;;;;;5052529;28;20267;-84
2022/06/28 05:46:49;;;;;;;1.25;1.23;;;21.60;99.90;;;;;;5052341;28;20236;-83
2022/06/28 05:49:18;;;;;;;1.63;1.40;;;21.60;99.90;;;;;;5052427;28;20213;-83
2022/06/28 05:51:46;;;;;;;2.38;2.13;;;21.70;99.90;;;;;;5052170;28;20263;-83
2022/06/28 05:54:16;;;;;;;2.10;1.85;;;21.80;99.90;;;;;;5052309;28;20236;-83
2022/06/28 05:56:44;;;;;;;2.17;1.98;;;21.90;99.90;;;;;;5052560;28;20251;-84
2022/06/28 05:59:13;;;;;;;1.50;1.42;;;22.00;99.90;;;;;;5052075;28;20244;-83
2022/06/28 06:01:41;;;;;;;4.70;1.67;;;22.00;99.90;;;;;;5051940;28;20293;-84
2022/06/28 06:04:09;;;;;;;2.30;1.88;;;22.10;99.90;;;;;;5052324;28;20321;-82
2022/06/28 06:06:38;;;;;;;1.38;1.27;;;22.10;99.90;;;;;;5052916;28;20213;-74
2022/06/28 06:09:08;;;;;;;2.53;2.10;;;22.20;99.90;;;;;;5052276;28;20221;-75
2022/06/28 06:11:39;;;;;;;1.73;1.63;;;22.30;99.90;;;;;;5051658;28;20202;-73
2022/06/28 06:14:07;;;;;;;1.45;1.35;;;22.40;99.90;;;;;;5032215;28;20285;-73
2022/06/28 06:16:35;;;;;;;1.10;1.10;;;22.50;99.90;;;;;;5042087;28;20264;-74
2022/06/28 06:19:04;;;;;;;1.33;1.25;;;22.50;99.90;;;;;;5051812;28;20198;-74
2022/06/28 06:21:32;;;;;;;1.70;1.60;;;22.60;99.90;;;;;;5052891;28;20241;-73
2022/06/28 06:24:00;;;;;;;1.52;1.42;;;22.80;99.90;;;;;;5052544;28;20228;-73
2022/06/28 06:26:41;;;;;;;1.63;1.52;;;22.90;99.90;;;;;;5052637;28;20262;-73
2022/06/28 06:29:09;;;;;;;2.65;1.70;;;22.90;99.90;;;;;;5055845;28;20260;-73
2022/06/28 06:31:38;;;;;;;1.38;1.33;;;23.10;99.90;;;;;;5056300;28;20293;-73
2022/06/28 06:34:06;;;;;;;1.40;1.30;;;23.20;99.90;;;;;;5055844;28;20281;-73
2022/06/28 06:36:40;;;;;;;1.60;1.50;;;23.10;99.90;;;;;;5036664;28;20218;-74
2022/06/28 06:39:09;;;;;;;2.00;1.80;;;23.10;99.90;;;;;;5050103;28;20253;-74
2022/06/28 06:41:37;;;;;;;2.00;1.80;;;23.10;99.90;;;;;;5055745;28;20228;-74
2022/06/28 06:44:07;;;;;;;1.70;1.60;;;23.20;99.90;;;;;;5055272;28;20212;-74
2022/06/28 06:46:36;;;;;;;1.85;1.75;;;23.30;99.90;;;;;;5055726;28;20194;-74
2022/06/28 06:49:05;;;;;;;1.80;1.70;;;23.30;99.90;;;;;;5055747;28;20217;-74
2022/06/28 06:51:33;;;;;;;1.63;1.52;;;23.40;99.90;;;;;;5055900;28;20293;-74
2022/06/28 06:54:02;;;;;;;1.52;1.42;;;23.50;99.90;;;;;;5055279;28;20273;-73
2022/06/28 06:56:30;;;;;;;1.77;1.45;;;23.70;99.90;;;;;;5055859;28;20218;-74
2022/06/28 06:58:58;;;;;;;1.70;1.60;;;23.90;99.90;;;;;;5055922;28;20240;-78
2022/06/28 07:01:32;;;;;;;1.80;1.67;;;24.00;99.90;;;;;;5055203;28;20281;-75
2022/06/28 07:04:11;;;;;;;1.90;1.80;;;24.10;99.90;;;;;;5055867;28;20206;-75
2022/06/28 07:06:40;;;;;;;1.60;1.50;;;24.40;99.90;;;;;;5055339;28;20209;-75
2022/06/28 07:09:08;;;;;;;1.70;1.60;;;24.70;99.90;;;;;;5055121;28;20304;-75
2022/06/28 07:11:36;;;;;;;2.13;1.55;;;24.80;99.90;;;;;;5054876;28;20280;-74
2022/06/28 07:14:05;;;;;;;1.77;1.50;;;24.80;99.90;;;;;;5055337;28;20285;-74
2022/06/28 07:16:35;;;;;;;1.65;1.55;;;25.10;99.90;;;;;;5055099;28;20285;-75
2022/06/28 07:19:03;;;;;;;1.65;1.55;;;25.30;99.90;;;;;;5055136;28;20228;-75
2022/06/28 07:21:31;;;;;;;3.33;2.28;;;25.40;99.90;;;;;;5055011;28;20209;-75
2022/06/28 07:24:01;;;;;;;1.65;1.55;;;25.80;99.90;;;;;;5054913;28;20248;-76
2022/06/28 07:26:29;;;;;;;1.40;1.30;;;26.40;99.90;;;;;;5055222;28;20209;-76
2022/06/28 07:28:57;;;;;;;1.70;1.60;;;27.10;99.90;;;;;;5054865;28;20217;-75
2022/06/28 07:31:27;;;;;;;2.03;1.92;;;27.60;99.90;;;;;;5046160;28;20288;-75
2022/06/28 07:33:57;;;;;;;1.95;1.85;;;27.70;99.90;;;;;;5054210;28;20229;-76
2022/06/28 07:36:25;;;;;;;1.90;1.80;;;27.80;99.90;;;;;;5054528;28;20309;-76
2022/06/28 07:38:54;;;;;;;2.10;1.90;;;28.10;99.90;;;;;;5053871;28;20220;-76
2022/06/28 07:41:23;;;;;;;1.75;1.65;;;29.00;99.90;;;;;;5054551;28;20240;-76
2022/06/28 07:43:52;;;;;;;4.10;1.88;;;29.40;99.90;;;;;;5054493;28;20221;-76
2022/06/28 07:46:22;;;;;;;2.15;1.75;;;29.10;99.90;;;;;;5053950;28;20262;-76
2022/06/28 07:48:51;;;;;;;2.35;1.90;;;29.60;99.90;;;;;;5054159;28;20275;-76
2022/06/28 07:54:06;;;;;;;2.83;1.88;;;30.00;99.90;;;;;;5054450;28;20225;-75
2022/06/28 07:56:35;;;;;;;2.03;1.92;;;30.20;99.90;;;;;;5054693;28;20201;-76
2022/06/28 07:59:03;;;;;;;2.05;1.95;;;30.20;99.90;;;;;;5054658;28;20190;-76
2022/06/28 08:01:32;;;;;;;2.50;1.83;;;30.00;99.90;;;;;;5053672;28;20206;-75
2022/06/28 08:04:00;;;;;;;2.28;1.55;;;29.60;99.90;;;;;;5054265;28;20317;-76
2022/06/28 08:06:30;;;;;;;1.83;1.73;;;29.40;99.90;;;;;;5054489;28;20209;-76
2022/06/28 08:08:58;;;;;;;1.48;1.35;;;29.30;99.90;;;;;;5053825;28;20217;-77
2022/06/28 08:11:27;;;;;;;1.65;1.55;;;29.60;99.90;;;;;;5054251;28;20236;-77
2022/06/28 08:13:56;;;;;;;1.80;1.67;;;29.70;99.90;;;;;;5054114;28;20281;-78
2022/06/28 08:16:24;;;;;;;1.98;1.88;;;30.00;99.90;;;;;;5053428;28;20313;-78
2022/06/28 08:18:52;;;;;;;4.65;1.60;;;30.00;99.90;;;;;;5053457;28;20268;-78
2022/06/28 08:21:21;;;;;;;1.63;1.52;;;29.90;99.90;;;;;;5053389;28;20257;-78
2022/06/28 08:23:51;;;;;;;1.42;1.33;;;30.40;99.90;;;;;;5054070;28;20239;-78
2022/06/28 08:26:19;;;;;;;1.70;1.60;;;30.90;99.90;;;;;;5054288;28;20216;-78
2022/06/28 08:28:48;;;;;;;1.52;1.42;;;31.20;99.90;;;;;;5053185;28;20217;-78
2022/06/28 08:31:16;;;;;;;1.40;1.30;;;31.40;99.90;;;;;;5053651;28;20232;-78
2022/06/28 08:33:44;;;;;;;1.60;1.48;;;31.70;99.90;;;;;;5053711;28;20217;-78
2022/06/28 08:36:12;;;;;;;1.70;1.60;;;31.20;99.90;;;;;;5052790;28;20201;-78
2022/06/28 08:38:41;;;;;;;1.58;1.48;;;31.80;99.90;;;;;;5053529;28;20253;-78
2022/06/28 08:41:11;;;;;;;2.22;1.58;;;31.90;99.90;;;;;;5052592;28;20287;-78
2022/06/28 08:43:40;;;;;;;1.25;1.23;;;32.50;99.20;;;;;;5053987;28;20309;-78
2022/06/28 08:46:09;;;;;;;1.77;1.67;;;33.20;98.60;;;;;;5053520;28;20235;-78
2022/06/28 08:48:42;;;;;;;1.98;1.88;;;33.20;97.70;;;;;;5053666;28;20231;-79
2022/06/28 08:51:12;;;;;;;1.33;1.30;;;33.10;97.70;;;;;;5053367;28;20280;-79
2022/06/28 08:53:41;;;;;;;1.60;1.50;;;33.50;97.00;;;;;;5053230;28;20219;-79
2022/06/28 08:56:11;;;;;;;1.58;1.48;;;34.30;96.30;;;;;;5042633;28;20284;-89
2022/06/28 08:58:43;;;;;;;2.10;1.90;;;35.20;95.20;;;;;;5053019;28;20231;-90
2022/06/28 09:01:13;;;;;;;1.92;1.65;;;35.50;93.50;;;;;;5052711;28;20231;-90
2022/06/28 09:03:41;;;;;;;1.67;1.58;;;36.00;91.70;;;;;;5053256;28;20236;-86
2022/06/28 09:06:10;;;;;;;12.40;1.60;;;35.90;91.20;;;;;;5053352;28;20296;-86
2022/06/28 09:08:40;;;;;;;3.95;1.98;;;35.50;90.90;;;;;;5053941;28;20256;-86
2022/06/28 09:14:58;;;;;;;1.88;1.77;;;35.00;91.60;;;;;;5052992;28;20183;-85
2022/06/28 09:17:28;;;;;;;1.77;1.67;;;34.90;90.70;;;;;;5053516;28;20205;-86
2022/06/28 09:19:59;;;;;;;1.88;1.58;;;35.10;90.80;;;;;;5052316;28;20201;-86
2022/06/28 09:22:32;;;;;;;1.92;1.83;;;34.20;90.90;;;;;;5053184;28;20260;-86
2022/06/28 09:25:03;;;;;;;2.28;1.85;;;34.20;91.20;;;;;;5053215;28;20217;-86
2022/06/28 09:27:33;;;;;;;1.90;1.63;;;34.60;92.00;;;;;;5052605;28;20259;-86
2022/06/28 09:30:05;;;;;;;1.90;1.70;;;35.50;90.10;;;;;;5052992;28;20217;-86
2022/06/28 09:32:36;;;;;;;1.63;1.52;;;35.30;89.20;;;;;;5052693;28;20223;-86
2022/06/28 09:35:09;;;;;;;1.88;1.77;;;35.10;89.60;;;;;;5052849;28;20225;-85
2022/06/28 09:37:45;;;;;;;7.78;2.13;;;35.70;88.10;;;;;;5053097;28;20186;-86
2022/06/28 09:40:16;;;;;;;1.80;1.70;;;36.20;87.70;;;;;;5052977;28;20212;-86
2022/06/28 09:42:48;;;;;;;1.77;1.67;;;35.50;86.20;;;;;;5046644;28;20300;-86
2022/06/28 09:45:17;;;;;;;2.13;1.73;;;35.40;87.30;;;;;;5039636;28;20277;-86
2022/06/28 09:47:49;;;;;;;2.08;1.92;;;35.70;86.30;;;;;;5052940;28;20213;-86
2022/06/28 09:50:35;;;;;;;1.83;1.73;;;35.70;86.80;;;;;;5052387;28;20220;-85
2022/06/28 09:53:05;;;;;;;2.30;1.73;;;36.60;84.40;;;;;;5051003;28;20213;-86
2022/06/28 09:55:38;;;;;;;2.00;1.90;;;37.70;82.90;;;;;;5042674;28;20289;-85
2022/06/28 09:58:07;;;;;;;1.52;1.42;;;37.80;79.50;;;;;;5053262;28;20205;-86
2022/06/28 10:00:39;;;;;;;2.30;1.65;;;37.00;79.90;;;;;;5052701;28;20284;-86
2022/06/28 10:03:09;;;;;;;2.28;2.08;;;36.50;80.60;;;;;;5036821;28;20237;-86
2022/06/28 10:05:37;;;;;;;1.48;1.38;;;35.30;82.60;;;;;;5056314;28;20205;-84
2022/06/28 10:08:07;;;;;;;2.10;1.90;;;35.00;83.70;;;;;;5056807;28;20204;-84
2022/06/28 10:10:37;;;;;;;1.75;1.63;;;35.00;83.00;;;;;;5055934;28;20304;-84
2022/06/28 10:16:11;;;;;;;1.60;1.50;;;36.20;84.90;;;;;;5054003;28;20213;-84
2022/06/28 10:18:43;;;;;;;1.13;1.13;;;36.90;79.70;;;;;;5056460;28;20266;-84
2022/06/28 10:21:12;;;;;;;1.65;1.55;;;37.40;81.60;;;;;;5056288;28;20200;-84
2022/06/28 10:23:42;;;;;;;1.83;1.73;;;37.60;79.20;;;;;;5056256;28;20281;-84
2022/06/28 10:26:18;;;;;;;1.90;1.75;;;37.50;77.70;;;;;;5056244;28;20236;-84
2022/06/28 10:28:49;;;;;;;1.90;1.80;;;35.90;78.70;;;;;;5056656;28;20288;-84
2022/06/28 10:31:44;;;;;;;1.85;1.75;;;35.50;79.30;;;;;;5055294;28;20217;-84
2022/06/28 10:34:16;;;;;;;1.98;1.80;;;35.20;80.70;;;;;;5042728;28;20205;-84
2022/06/28 10:36:50;;;;;;;2.28;1.75;;;35.50;80.60;;;;;;5056438;28;20255;-84
2022/06/28 10:39:26;;;;;;;2.00;1.45;;;35.90;79.90;;;;;;5055710;28;20236;-84
2022/06/28 10:42:07;;;;;;;1.95;1.83;;;35.70;79.70;;;;;;5055677;28;20240;-84
2022/06/28 10:44:47;;;;;;;2.65;1.98;;;35.50;79.40;;;;;;5055801;28;20231;-84
2022/06/28 10:47:18;;;;;;;2.13;1.92;;;35.50;81.00;;;;;;5055792;28;20219;-84
2022/06/28 10:49:56;;;;;;;1.80;1.70;;;36.30;80.80;;;;;;5056059;28;20263;-84
2022/06/28 10:52:30;;;;;;;3.50;2.00;;;37.10;79.10;;;;;;5055393;28;20251;-84
2022/06/28 10:55:21;;;;;;;1.95;1.63;;;37.70;80.10;;;;;;5055972;28;20228;-84
2022/06/28 10:58:05;;;;;;;1.77;1.67;;;37.90;75.20;;;;;;5038016;28;20257;-85
2022/06/28 11:00:35;;;;;;;2.08;1.73;;;38.00;74.70;;;;;;5055237;28;20203;-85
2022/06/28 11:03:06;;;;;;;2.35;2.00;;;38.00;75.40;;;;;;5054932;28;20224;-84
2022/06/28 11:05:50;;;;;;;1.58;1.48;;;37.90;74.30;;;;;;5055530;28;20281;-84
2022/06/28 11:08:43;;;;;;;2.55;1.73;;;37.60;76.20;;;;;;5055858;28;20251;-84
2022/06/28 11:11:11;;;;;;;1.75;1.65;;;37.40;74.30;;;;;;5055679;28;20221;-85
2022/06/28 11:13:39;;;;;;;1.95;1.80;;;37.40;74.50;;;;;;5055618;28;20251;-84
2022/06/28 11:16:11;;;;;;;1.92;1.83;;;37.30;74.60;;;;;;5054757;28;20197;-85
2022/06/28 11:18:41;;;;;;;2.60;1.95;;;37.40;74.30;;;;;;5055369;28;20216;-84
2022/06/28 11:21:10;;;;;;;1.83;1.73;;;37.30;74.20;;;;;;5054868;28;20250;-84
2022/06/28 11:23:39;;;;;;;1.85;1.75;;;36.90;74.80;;;;;;5055470;28;20249;-84
2022/06/28 11:29:03;;;;;;;1.67;1.58;;;36.60;75.50;;;;;;5055048;28;20228;-84
2022/06/28 11:31:43;;;;;;;1.67;1.58;;;36.80;76.00;;;;;;5054496;28;20222;-84
2022/06/28 11:34:14;;;;;;;2.15;1.80;;;36.90;76.20;;;;;;5055133;28;20219;-84
2022/06/28 11:36:45;;;;;;;2.25;1.70;;;37.00;76.40;;;;;;5054929;28;20296;-84
2022/06/28 11:39:21;;;;;;;2.08;1.98;;;37.40;74.30;;;;;;5054911;28;20205;-85
2022/06/28 11:41:51;;;;;;;1.65;1.55;;;37.30;75.40;;;;;;5054164;28;20254;-84
2022/06/28 11:44:20;;;;;;;2.35;2.15;;;37.30;74.20;;;;;;5054477;28;20227;-85
2022/06/28 11:46:51;;;;;;;1.67;1.52;;;36.90;75.10;;;;;;5054471;28;20201;-84
2022/06/28 11:49:32;;;;;;;1.50;1.40;;;36.30;76.20;;;;;;5054531;28;20196;-84
2022/06/28 11:52:01;;;;;;;2.13;1.90;;;36.20;77.10;;;;;;5054116;28;20228;-84
2022/06/28 11:54:29;;;;;;;6.07;1.73;;;36.20;76.90;;;;;;5053710;28;20197;-84
2022/06/28 11:56:58;;;;;;;1.60;1.50;;;35.40;75.60;;;;;;5054843;28;20201;-84
2022/06/28 11:59:52;;;;;;;1.58;1.48;;;35.30;76.30;;;;;;5054706;28;20260;-84
2022/06/28 12:02:40;;;;;;;2.17;1.90;;;35.40;77.90;;;;;;5053816;28;20275;-84
2022/06/28 12:05:10;;;;;;;2.00;1.80;;;35.90;76.70;;;;;;5053505;28;20285;-84
2022/06/28 12:07:42;;;;;;;4.10;1.80;;;36.30;76.50;;;;;;5053427;28;20280;-84
2022/06/28 12:10:20;;;;;;;2.05;1.70;;;35.60;75.90;;;;;;5052780;28;20198;-84
2022/06/28 12:12:48;;;;;;;2.35;1.65;;;35.70;77.80;;;;;;5053182;28;20307;-84
2022/06/28 12:15:28;;;;;;;1.90;1.67;;;36.00;78.00;;;;;;5051129;28;20201;-84
2022/06/28 12:18:02;;;;;;;2.97;1.45;;;36.50;76.90;;;;;;5053411;28;20204;-84
2022/06/28 12:20:57;;;;;;;2.33;1.73;;;37.00;74.50;;;;;;5053027;28;20205;-83
2022/06/28 12:23:25;;;;;;;1.95;1.75;;;36.90;75.40;;;;;;5052631;28;20221;-84
2022/06/28 12:26:01;;;;;;;6.40;2.00;;;36.90;74.70;;;;;;5053135;28;20204;-84
2022/06/28 12:28:30;;;;;;;2.25;1.73;;;36.80;75.20;;;;;;5052432;28;20196;-84
2022/06/28 12:30:58;;;;;;;2.08;1.80;;;36.90;75.70;;;;;;5052831;28;20313;-84
2022/06/28 12:33:26;;;;;;;2.28;1.80;;;37.00;73.20;;;;;;5051600;28;20220;-84
2022/06/28 12:35:56;;;;;;;1.90;1.67;;;36.90;74.40;;;;;;5052422;28;20197;-84
2022/06/28 12:38:25;;;;;;;1.63;1.52;;;36.60;74.60;;;;;;5052713;28;20232;-84
2022/06/28 12:40:53;;;;;;;1.70;1.45;;;36.50;73.60;;;;;;5052308;28;20217;-84
2022/06/28 12:43:21;;;;;;;2.40;1.58;;;36.40;72.70;;;;;;5052876;28;20263;-84
2022/06/28 12:45:49;;;;;;;1.60;1.50;;;36.60;73.60;;;;;;5052358;28;20221;-84
2022/06/28 12:48:27;;;;;;;3.03;1.90;;;36.80;73.10;;;;;;5052731;28;20205;-84
2022/06/28 12:50:56;;;;;;;2.67;2.20;;;37.10;71.90;;;;;;5052489;28;20212;-84
2022/06/28 12:53:25;;;;;;;1.60;1.50;;;37.30;72.30;;;;;;5052442;28;20283;-84
2022/06/28 12:55:53;;;;;;;2.03;1.55;;;37.30;70.50;;;;;;5052492;28;20284;-84
2022/06/28 12:58:21;;;;;;;1.70;1.60;;;37.20;71.60;;;;;;5052208;28;20201;-84
2022/06/28 13:00:50;;;;;;;1.55;1.42;;;37.00;71.20;;;;;;5052707;28;20201;-85
2022/06/28 13:03:18;;;;;;;2.35;1.73;;;36.90;70.40;;;;;;4989907;28;1403850;-85
2022/06/28 13:05:47;;;;;;;2.17;1.80;;;36.90;70.10;;;;;;5043885;28;20209;-84
2022/06/28 13:08:29;;;;;;;1.58;1.48;;;36.60;71.00;;;;;;5052880;28;20208;-85
2022/06/28 13:10:57;;;;;;;1.92;1.70;;;36.60;71.10;;;;;;5052894;28;20205;-85
2022/06/28 13:13:26;;;;;;;2.88;1.38;;;36.70;70.90;;;;;;5052639;28;20220;-85
2022/06/28 13:15:54;;;;;;;1.60;1.50;;;36.70;70.90;;;;;;5052701;28;20235;-85
2022/06/28 13:18:22;;;;;;;2.63;1.90;;;36.70;69.60;;;;;;5053440;28;20235;-85
2022/06/28 13:20:51;;;;;;;7.75;1.75;;;36.80;71.50;;;;;;5052360;28;20197;-85